Time;durP1;ratioP1;P1;durP2;ratioP2;P2;SDS_P1;SDS_P2;PMS_P1;PMS_P2;Temp;Humidity;BMP_temperature;BMP_pressure;BME280_temperature;BME280_humidity;BME280_pressure;Samples;Min_cycle;Max_cycle;Signal;HPM_P1;HPM_P2
2023/04/25 00:02:16;;;;;;;1.58;1.00;;;;;;;9.31;40.07;91727.63;5015842;28;20021;-77
2023/04/25 00:04:53;;;;;;;1.17;0.95;;;;;;;9.25;40.29;91721.72;5017455;28;20037;-77
2023/04/25 00:07:19;;;;;;;1.95;1.05;;;;;;;9.27;40.51;91729.25;5014341;28;20574;-76
2023/04/25 00:09:44;;;;;;;1.08;0.98;;;;;;;9.23;40.65;91726.50;5015525;28;20033;-77
2023/04/25 00:12:16;;;;;;;2.65;1.00;;;;;;;9.20;39.97;91729.69;5015358;28;20116;-77
2023/04/25 00:14:42;;;;;;;1.27;1.00;;;;;;;9.20;40.10;91732.28;5015137;28;20045;-77
2023/04/25 00:17:11;;;;;;;0.98;0.80;;;;;;;9.16;40.30;91726.91;5015339;28;20036;-78
2023/04/25 00:19:37;;;;;;;1.58;0.95;;;;;;;9.12;40.46;91727.78;5014095;28;20131;-77
2023/04/25 00:22:08;;;;;;;1.58;1.20;;;;;;;9.10;40.69;91729.91;5014068;28;20618;-76
2023/04/25 00:24:33;;;;;;;1.65;1.08;;;;;;;9.11;39.74;91723.63;5013942;28;20399;-76
2023/04/25 00:26:59;;;;;;;2.92;1.30;;;;;;;9.15;40.00;91724.56;5013999;28;20030;-77
2023/04/25 00:29:25;;;;;;;1.45;1.10;;;;;;;9.19;39.95;91720.31;5014332;28;20049;-77
2023/04/25 00:32:01;;;;;;;1.55;1.10;;;;;;;9.17;39.64;91717.22;5016830;28;20038;-77
2023/04/25 00:34:27;;;;;;;1.65;0.90;;;;;;;9.17;39.56;91720.59;5015062;28;20066;-77
2023/04/25 00:36:53;;;;;;;1.13;0.93;;;;;;;9.23;39.55;91725.69;5014455;28;20034;-77
2023/04/25 00:39:18;;;;;;;1.10;1.00;;;;;;;9.25;39.63;91719.09;5016379;28;20049;-77
2023/04/25 00:41:45;;;;;;;1.92;1.10;;;;;;;9.26;39.58;91710.22;5015359;28;20499;-77
2023/04/25 00:44:11;;;;;;;3.58;1.30;;;;;;;9.28;39.72;91708.09;5016154;28;20498;-77
2023/04/25 00:47:33;;;;;;;4.47;1.13;;;;;;;9.28;39.82;91708.09;4998544;28;20439;-77
2023/04/25 00:49:59;;;;;;;2.28;1.00;;;;;;;9.27;39.79;91709.13;5016169;28;20481;-77
2023/04/25 00:52:25;;;;;;;1.70;1.02;;;;;;;9.28;39.97;91710.69;5014611;28;20091;-77
2023/04/25 00:54:54;;;;;;;1.55;1.02;;;;;;;9.35;39.41;91703.22;5016226;28;20131;-77
2023/04/25 00:57:43;;;;;;;1.10;1.00;;;;;;;9.42;39.77;91720.31;5015014;28;20049;-77
2023/04/25 01:00:10;;;;;;;1.83;1.05;;;;;;;9.41;39.20;91705.69;5015931;28;20029;-77
2023/04/25 01:02:37;;;;;;;1.70;1.20;;;;;;;9.41;39.63;91708.31;5015144;28;20045;-77
2023/04/25 01:05:23;;;;;;;2.80;0.95;;;;;;;9.46;40.33;91708.22;5016254;28;20117;-77
2023/04/25 01:08:00;;;;;;;1.30;0.98;;;;;;;9.57;39.69;91712.13;5016548;28;20042;-77
2023/04/25 01:10:26;;;;;;;2.30;1.00;;;;;;;9.44;40.15;91702.50;5015223;28;20121;-77
2023/04/25 01:12:51;;;;;;;1.67;1.00;;;;;;;9.45;41.33;91707.41;5016382;28;20109;-77
2023/04/25 01:15:17;;;;;;;1.83;1.00;;;;;;;9.46;40.20;91705.59;5014976;28;20053;-77
2023/04/25 01:17:43;;;;;;;2.47;1.25;;;;;;;9.44;39.79;91699.91;5014818;28;20037;-77
2023/04/25 01:20:11;;;;;;;1.48;1.02;;;;;;;9.40;40.56;91704.94;5016437;28;20026;-77
2023/04/25 01:22:38;;;;;;;1.42;1.10;;;;;;;9.39;39.99;91703.41;5014704;28;20120;-77
2023/04/25 01:25:04;;;;;;;2.20;1.08;;;;;;;9.35;39.76;91702.44;5015798;28;20045;-77
2023/04/25 01:27:32;;;;;;;1.35;1.00;;;;;;;9.40;39.04;91706.78;5014414;28;20037;-77
2023/04/25 01:29:59;;;;;;;2.58;1.70;;;;;;;9.38;40.17;91718.28;5014968;28;20049;-77
2023/04/25 01:32:26;;;;;;;1.85;1.10;;;;;;;9.36;40.20;91715.19;5014556;28;20077;-77
2023/04/25 01:34:52;;;;;;;2.22;1.15;;;;;;;9.38;40.54;91713.06;5014369;28;20076;-77
2023/04/25 01:37:20;;;;;;;1.75;1.10;;;;;;;9.38;40.55;91713.06;5014785;28;20034;-77
2023/04/25 01:39:46;;;;;;;2.08;1.10;;;;;;;9.32;40.49;91703.81;5015724;28;20065;-77
2023/04/25 01:42:41;;;;;;;2.38;1.02;;;;;;;9.33;40.66;91699.38;5014367;28;20045;-77
2023/04/25 01:45:26;;;;;;;2.47;1.27;;;;;;;9.33;40.66;91707.97;4998294;28;20128;-77
2023/04/25 01:47:59;;;;;;;2.63;1.30;;;;;;;9.34;40.25;91711.34;5014315;28;20038;-77
2023/04/25 01:51:16;;;;;;;1.55;1.10;;;;;;;9.32;41.03;91709.03;5014437;28;20507;-77
2023/04/25 01:53:43;;;;;;;0.95;0.90;;;;;;;9.28;40.46;91689.81;5013486;28;20043;-77
2023/04/25 01:56:08;;;;;;;1.63;1.10;;;;;;;9.29;41.08;91688.72;4981901;28;20026;-77
2023/04/25 01:59:16;;;;;;;3.50;1.10;;;;;;;9.27;40.87;91685.63;4997918;28;20096;-78
2023/04/25 02:01:52;;;;;;;1.58;1.17;;;;;;;9.27;40.27;91685.63;5013861;28;20492;-77
2023/04/25 02:04:27;;;;;;;1.63;0.95;;;;;;;9.25;40.70;91682.53;5015026;28;20456;-77
2023/04/25 02:06:53;;;;;;;2.50;1.15;;;;;;;9.24;40.92;91681.03;5015270;28;20041;-77
2023/04/25 02:09:47;;;;;;;1.35;1.00;;;;;;;9.28;40.40;91681.97;5013705;28;20373;-77
2023/04/25 02:12:13;;;;;;;2.45;1.17;;;;;;;9.28;40.44;91684.59;4997194;28;20037;-77
2023/04/25 02:14:57;;;;;;;2.45;1.00;;;;;;;9.29;40.94;91680.13;5013987;28;20112;-77
2023/04/25 02:17:41;;;;;;;2.28;0.95;;;;;;;9.26;41.02;91673.66;5014649;28;20092;-77
2023/04/25 02:20:07;;;;;;;1.38;1.02;;;;;;;9.30;39.89;91669.38;5013560;28;20133;-77
2023/04/25 02:22:59;;;;;;;1.40;1.00;;;;;;;9.29;39.96;91682.72;5013477;28;20077;-77
2023/04/25 02:25:27;;;;;;;2.38;1.20;;;;;;;9.29;40.59;91682.72;5013581;28;20044;-77
2023/04/25 02:27:52;;;;;;;1.65;1.08;;;;;;;9.29;40.87;91680.13;5013756;28;20078;-77
2023/04/25 02:30:18;;;;;;;2.08;1.00;;;;;;;9.25;40.92;91681.78;5011499;28;20530;-77
2023/04/25 02:32:46;;;;;;;3.20;0.95;;;;;;;9.22;40.96;91693.59;5013664;28;20038;-77
2023/04/25 02:35:17;;;;;;;3.55;1.08;;;;;;;9.20;41.15;91694.97;5013317;28;20045;-77
2023/04/25 02:37:44;;;;;;;1.95;1.20;;;;;;;9.18;42.09;91688.19;4995951;28;20083;-78
2023/04/25 02:40:11;;;;;;;1.85;1.08;;;;;;;9.17;41.72;91696.34;4980146;28;20076;-76
2023/04/25 02:42:37;;;;;;;2.35;1.00;;;;;;;9.21;42.02;91699.91;5012903;28;20046;-76
2023/04/25 02:45:07;;;;;;;1.10;1.00;;;;;;;9.20;41.02;91693.13;5012330;28;20045;-76
2023/04/25 02:47:33;;;;;;;2.10;1.10;;;;;;;9.17;40.94;91685.88;5013851;28;20034;-76
2023/04/25 02:50:04;;;;;;;1.95;1.23;;;;;;;9.30;41.01;91684.28;5011813;28;20037;-76
2023/04/25 02:52:29;;;;;;;2.08;0.93;;;;;;;9.23;41.04;91676.88;5011718;28;20041;-77
2023/04/25 02:55:12;;;;;;;3.05;1.15;;;;;;;9.17;41.36;91676.22;5013371;28;20399;-76
2023/04/25 02:57:38;;;;;;;1.52;1.10;;;;;;;9.18;40.44;91675.13;5011986;28;20115;-77
2023/04/25 03:00:22;;;;;;;2.20;1.08;;;;;;;9.18;40.39;91671.75;5015533;28;20484;-76
2023/04/25 03:02:47;;;;;;;2.90;1.00;;;;;;;9.09;40.75;91668.31;4999416;28;20078;-78
2023/04/25 03:05:13;;;;;;;1.50;1.10;;;;;;;9.05;40.75;91667.34;5015887;28;20080;-77
2023/04/25 03:07:55;;;;;;;1.83;1.10;;;;;;;9.01;40.32;91661.97;5015677;28;20041;-78
2023/04/25 03:10:33;;;;;;;2.50;1.10;;;;;;;8.98;40.94;91667.00;5016688;28;20404;-77
2023/04/25 03:13:02;;;;;;;1.50;0.95;;;;;;;8.90;41.38;91674.47;5015491;28;20519;-77
2023/04/25 03:15:28;;;;;;;2.70;1.20;;;;;;;8.85;41.00;91664.16;5015416;28;20046;-78
2023/04/25 03:18:03;;;;;;;1.05;0.95;;;;;;;8.78;40.83;91661.19;5015160;28;20033;-77
2023/04/25 03:20:29;;;;;;;1.42;1.05;;;;;;;8.70;42.17;91667.84;5015637;28;20079;-76
2023/04/25 03:22:56;;;;;;;2.20;1.23;;;;;;;8.59;43.07;91665.75;5016486;28;20125;-77
2023/04/25 03:25:26;;;;;;;3.17;1.20;;;;;;;8.51;43.31;91659.38;5015265;28;20038;-76
2023/04/25 03:28:11;;;;;;;2.33;1.00;;;;;;;8.38;44.05;91666.16;5014867;28;20080;-76
2023/04/25 03:30:40;;;;;;;1.48;1.17;;;;;;;8.26;44.72;91666.66;5014774;28;20162;-77
2023/04/25 03:33:06;;;;;;;1.48;1.10;;;;;;;8.16;44.77;91655.66;5014900;28;20116;-77
2023/04/25 03:35:32;;;;;;;2.15;1.00;;;;;;;8.10;45.42;91663.53;4998815;28;20506;-77
2023/04/25 03:38:04;;;;;;;2.05;1.17;;;;;;;8.03;45.88;91655.34;5015252;28;20038;-77
2023/04/25 03:40:34;;;;;;;2.28;1.02;;;;;;;7.97;45.70;91666.16;4999358;28;20037;-77
2023/04/25 03:43:18;;;;;;;1.60;1.05;;;;;;;7.90;45.59;91664.72;5016177;28;20178;-77
2023/04/25 03:45:57;;;;;;;2.03;1.08;;;;;;;7.85;45.71;91671.84;5015384;28;20041;-78
2023/04/25 03:48:26;;;;;;;2.45;1.15;;;;;;;7.77;46.47;91667.28;5016055;28;20057;-77
2023/04/25 03:51:10;;;;;;;2.65;1.05;;;;;;;7.67;48.21;91669.03;5017217;28;20077;-77
2023/04/25 03:53:49;;;;;;;2.40;1.10;;;;;;;7.59;47.82;91661.91;5016710;28;20117;-78
2023/04/25 03:56:30;;;;;;;1.98;1.15;;;;;;;7.55;47.18;91655.72;5017285;28;20042;-77
2023/04/25 03:59:08;;;;;;;1.23;0.93;;;;;;;7.49;47.45;91652.41;5016040;28;20046;-77
2023/04/25 04:01:34;;;;;;;1.85;1.17;;;;;;;7.47;47.79;91653.75;5015265;28;20474;-77
2023/04/25 04:04:02;;;;;;;2.00;1.27;;;;;;;7.42;48.27;91651.25;5015528;28;20057;-77
2023/04/25 04:06:39;;;;;;;2.50;1.30;;;;;;;7.36;48.55;91652.38;5015618;28;20411;-77
2023/04/25 04:09:13;;;;;;;2.17;1.27;;;;;;;7.30;48.57;91651.72;5016282;28;20084;-78
2023/04/25 04:11:41;;;;;;;2.08;1.00;;;;;;;7.25;48.99;91649.16;5015496;28;20041;-77
2023/04/25 04:14:15;;;;;;;1.20;0.95;;;;;;;7.23;47.88;91646.09;5015247;28;20077;-77
2023/04/25 04:16:44;;;;;;;4.18;1.60;;;;;;;7.20;48.02;91642.22;5015282;28;20115;-78
2023/04/25 04:19:16;;;;;;;3.42;1.02;;;;;;;7.11;48.30;91637.94;4983235;28;20045;-77
2023/04/25 04:21:48;;;;;;;1.80;1.27;;;;;;;7.12;49.03;91644.72;5015204;28;20038;-78
2023/04/25 04:24:14;;;;;;;1.88;1.00;;;;;;;7.11;49.75;91646.53;4998599;28;20487;-78
2023/04/25 04:26:58;;;;;;;1.45;1.00;;;;;;;7.02;49.53;91643.78;5014991;28;20076;-77
2023/04/25 04:29:39;;;;;;;1.85;1.10;;;;;;;6.99;49.77;91656.63;5014895;28;20044;-77
2023/04/25 04:32:20;;;;;;;1.77;1.10;;;;;;;6.94;50.20;91651.50;5014227;28;20064;-77
2023/04/25 04:34:47;;;;;;;1.38;0.90;;;;;;;6.94;50.68;91656.72;5013407;28;20037;-76
2023/04/25 04:37:14;;;;;;;3.33;1.05;;;;;;;6.87;50.82;91651.84;4983495;28;20132;-78
2023/04/25 04:39:41;;;;;;;2.72;1.20;;;;;;;6.81;51.09;91647.78;5017285;28;20049;-79
2023/04/25 04:42:27;;;;;;;2.17;1.10;;;;;;;6.80;51.96;91662.63;5018097;28;20056;-78
2023/04/25 04:45:23;;;;;;;2.67;1.00;;;;;;;6.77;53.00;91657.97;5005135;28;20053;-78
2023/04/25 04:52:02;;;;;;;1.83;0.93;;;;;;;6.82;49.81;91660.50;5019265;28;20108;-81
2023/04/25 04:54:50;;;;;;;1.73;1.20;;;;;;;6.96;49.58;91662.38;5017227;28;20052;-81
2023/04/25 04:57:28;;;;;;;2.28;1.10;;;;;;;7.01;51.75;91662.31;5019531;28;20072;-81
2023/04/25 05:00:20;;;;;;;1.60;1.00;;;;;;;7.06;52.98;91663.00;5031087;28;20050;-81
2023/04/25 05:03:06;;;;;;;4.50;2.15;;;;;;;7.10;52.71;91665.81;5036641;28;20085;-81
2023/04/25 05:05:54;;;;;;;6.10;2.45;;;;;;;7.20;54.11;91670.09;5014405;28;20044;-78
2023/04/25 05:08:40;;;;;;;;;;;;;;;7.34;53.95;91659.69;5019096;28;20099;-79
2023/04/25 05:11:08;;;;;;;2.42;1.40;;;;;;;7.41;53.35;91665.34;5018887;28;19913;-80
2023/04/25 05:13:41;;;;;;;3.72;1.30;;;;;;;7.42;53.67;91677.28;5019420;28;20038;-81
2023/04/25 05:16:33;;;;;;;1.83;1.23;;;;;;;7.44;52.67;91670.72;5005344;28;20049;-81
2023/04/25 05:19:16;;;;;;;1.42;1.00;;;;;;;7.45;53.02;91677.50;5017552;28;20101;-81
2023/04/25 05:22:21;;;;;;;2.03;1.23;;;;;;;7.41;53.14;91675.75;5019235;28;20049;-80
2023/04/25 05:25:09;;;;;;;3.40;1.10;;;;;;;7.48;52.43;91676.16;5019637;28;20057;-81
2023/04/25 05:28:22;;;;;;;1.85;1.20;;;;;;;7.60;52.46;91671.25;5020466;28;20042;-80
2023/04/25 05:30:59;;;;;;;2.40;1.23;;;;;;;7.61;53.53;91674.59;5019076;28;20404;-80
2023/04/25 05:33:29;;;;;;;1.52;1.10;;;;;;;7.70;52.91;91660.66;5019113;28;20034;-80
2023/04/25 05:35:54;;;;;;;2.03;1.25;;;;;;;7.80;52.04;91671.94;5018455;28;20049;-83
2023/04/25 05:38:20;;;;;;;2.58;1.30;;;;;;;7.96;53.00;91678.41;5012145;28;20404;-81
2023/04/25 05:41:30;;;;;;;1.85;1.20;;;;;;;8.16;51.85;91679.09;4987325;28;20039;-80
2023/04/25 05:44:11;;;;;;;2.42;1.10;;;;;;;8.35;50.94;91669.31;4978936;28;20043;-79
2023/04/25 05:47:04;;;;;;;2.28;1.13;;;;;;;8.79;51.19;91675.75;4958998;29;20059;-79
2023/04/25 05:49:45;;;;;;;1.48;0.90;;;;;;;9.03;47.82;91679.94;4961978;28;20072;-79
2023/04/25 05:52:40;;;;;;;1.00;0.90;;;;;;;9.48;46.14;91675.50;4991542;28;20049;-80
2023/04/25 05:55:13;;;;;;;1.23;1.08;;;;;;;9.54;47.43;91678.75;5014415;28;20052;-80
2023/04/25 05:57:41;;;;;;;1.58;1.10;;;;;;;9.62;48.74;91680.66;4998496;28;20060;-80
2023/04/25 06:00:22;;;;;;;1.85;1.10;;;;;;;9.64;50.29;91691.56;4998133;28;20459;-80
2023/04/25 06:02:48;;;;;;;2.15;1.40;;;;;;;9.71;51.02;91688.53;4998678;28;20038;-80
2023/04/25 06:05:48;;;;;;;2.90;1.50;;;;;;;9.66;52.38;91686.81;5015018;28;20448;-80
2023/04/25 06:08:14;;;;;;;2.35;1.42;;;;;;;9.77;52.34;91677.66;4982343;28;20036;-81
2023/04/25 06:11:14;;;;;;;3.65;1.40;;;;;;;10.05;52.51;91680.06;4998703;28;20117;-81
2023/04/25 06:13:40;;;;;;;3.13;1.50;;;;;;;11.31;50.69;91668.13;4998121;28;20045;-80
2023/04/25 06:16:06;;;;;;;4.03;1.48;;;;;;;12.68;47.25;91679.59;4997983;28;20039;-80
2023/04/25 06:18:59;;;;;;;3.30;1.60;;;;;;;13.67;45.75;91665.88;4981097;28;20034;-80
2023/04/25 06:21:25;;;;;;;3.00;1.65;;;;;;;14.68;45.05;91676.97;4996607;28;20030;-80
2023/04/25 06:23:51;;;;;;;3.03;1.90;;;;;;;15.31;45.48;91669.41;4980727;28;20042;-80
2023/04/25 06:26:44;;;;;;;7.97;2.45;;;;;;;15.49;47.32;91669.88;4997170;28;20041;-80
2023/04/25 06:29:31;;;;;;;4.65;2.40;;;;;;;16.20;47.38;91673.59;4997241;28;20137;-80
2023/04/25 06:32:00;;;;;;;4.40;2.40;;;;;;;16.66;46.58;91673.16;4995789;28;20062;-80
2023/04/25 06:34:25;;;;;;;5.32;2.30;;;;;;;16.82;43.25;91663.38;4999529;28;20034;-80
2023/04/25 06:36:51;;;;;;;4.40;2.10;;;;;;;17.35;43.25;91667.50;5000356;28;20061;-80
2023/04/25 06:39:32;;;;;;;4.70;1.80;;;;;;;17.61;41.96;91672.94;5000526;28;20049;-81
2023/04/25 06:41:58;;;;;;;4.68;1.60;;;;;;;18.39;39.34;91667.50;5001678;28;20034;-81
2023/04/25 06:44:42;;;;;;;4.53;2.05;;;;;;;18.26;39.92;91660.84;5014785;28;20061;-81
2023/04/25 06:47:10;;;;;;;4.30;1.90;;;;;;;18.16;40.36;91672.03;5000572;28;20162;-81
2023/04/25 06:49:36;;;;;;;4.85;1.90;;;;;;;17.44;40.36;91670.69;4983889;28;20053;-81
2023/04/25 06:52:01;;;;;;;5.15;1.70;;;;;;;17.04;41.64;91679.69;5000295;28;20459;-81
2023/04/25 06:54:29;;;;;;;4.60;1.80;;;;;;;16.65;42.13;91679.56;5000282;28;20133;-81
2023/04/25 06:57:53;;;;;;;2.85;1.80;;;;;;;16.36;43.55;91672.84;4999728;28;20061;-79
2023/04/25 07:04:18;;;;;;;3.33;1.58;;;;;;;15.88;45.31;91664.88;5000462;28;20035;-81
2023/04/25 07:06:49;;;;;;;3.58;1.70;;;;;;;16.00;43.51;91671.97;4985106;28;20048;-79
2023/04/25 07:12:48;;;;;;;5.07;1.88;;;;;;;15.36;46.47;91676.31;5000052;28;20046;-80
2023/04/25 07:15:17;;;;;;;3.30;1.58;;;;;;;15.21;47.59;91677.75;5016505;28;20034;-80
2023/04/25 07:17:45;;;;;;;3.28;1.65;;;;;;;15.29;45.94;91684.00;4999602;28;20136;-80
2023/04/25 07:23:41;;;;;;;2.97;1.50;;;;;;;15.13;45.62;91684.72;4999025;28;20572;-81
2023/04/25 07:26:11;;;;;;;2.67;1.60;;;;;;;14.80;45.91;91676.97;4999797;28;20050;-80
2023/04/25 07:28:56;;;;;;;4.60;1.70;;;;;;;14.92;46.20;91684.06;5004488;28;20060;-79
2023/04/25 07:31:24;;;;;;;2.83;1.50;;;;;;;14.85;46.97;91683.88;4989944;28;20050;-80
2023/04/25 07:34:10;;;;;;;5.13;1.88;;;;;;;14.56;48.47;91675.88;4998654;28;20451;-79
2023/04/25 07:36:37;;;;;;;4.50;1.52;;;;;;;14.05;49.98;91679.84;4999345;28;20041;-80
2023/04/25 07:39:03;;;;;;;3.58;1.42;;;;;;;13.92;50.71;91656.16;5000264;28;20030;-79
2023/04/25 07:41:32;;;;;;;3.38;1.50;;;;;;;14.06;50.69;91657.72;4998968;28;20104;-79
2023/04/25 07:43:58;;;;;;;3.83;1.70;;;;;;;13.88;50.09;91665.78;4998008;28;20038;-80
2023/04/25 07:46:24;;;;;;;3.13;1.85;;;;;;;13.99;51.43;91673.28;4982556;28;20042;-80
2023/04/25 07:49:46;;;;;;;2.85;1.80;;;;;;;14.15;51.42;91668.91;4999254;28;20049;-80
2023/04/25 07:55:43;;;;;;;3.28;1.80;;;;;;;14.22;50.83;91677.03;4998445;28;20069;-80
2023/04/25 07:58:15;;;;;;;2.70;1.65;;;;;;;14.26;49.53;91677.91;4999315;28;20062;-79
2023/04/25 08:04:37;;;;;;;3.42;1.67;;;;;;;14.27;48.92;91670.78;4999582;28;20047;-80
2023/04/25 08:07:17;;;;;;;6.20;1.45;;;;;;;14.38;50.83;91667.38;4998347;28;20129;-80
2023/04/25 08:09:52;;;;;;;3.40;1.30;;;;;;;13.82;48.28;91667.09;4998531;28;20097;-81
2023/04/25 08:12:54;;;;;;;2.60;1.40;;;;;;;14.14;50.49;91667.41;5013718;28;20093;-80
2023/04/25 08:15:19;;;;;;;4.03;1.33;;;;;;;14.37;49.58;91673.00;4997704;28;20038;-79
2023/04/25 08:17:46;;;;;;;4.40;1.70;;;;;;;14.08;49.00;91673.97;4998436;28;20053;-80
2023/04/25 08:20:50;;;;;;;2.80;1.60;;;;;;;14.02;47.50;91670.00;4982893;28;20034;-80
2023/04/25 08:23:34;;;;;;;3.13;1.40;;;;;;;14.16;48.49;91665.19;4997374;28;20540;-79
2023/04/25 08:26:09;;;;;;;2.22;1.33;;;;;;;14.29;47.46;91668.59;4998299;28;20068;-79
2023/04/25 08:28:37;;;;;;;2.88;1.40;;;;;;;14.59;44.87;91666.56;4997982;28;20042;-78
2023/04/25 08:31:56;;;;;;;2.92;1.50;;;;;;;14.24;47.94;91677.47;4996847;28;20030;-80
2023/04/25 08:34:22;;;;;;;2.30;1.40;;;;;;;14.54;47.16;91679.91;4997346;28;20043;-79
2023/04/25 08:36:49;;;;;;;2.92;1.50;;;;;;;14.58;49.67;91681.56;4995394;28;20042;-76
2023/04/25 08:39:37;;;;;;;3.03;1.60;;;;;;;14.60;44.93;91691.03;4993422;28;20376;-76
2023/04/25 08:42:35;;;;;;;2.65;1.63;;;;;;;14.62;46.58;91686.97;4981552;28;20054;-77
2023/04/25 08:45:03;;;;;;;2.10;1.20;;;;;;;14.51;48.03;91685.84;4992950;28;20088;-76
2023/04/25 08:47:38;;;;;;;3.33;1.40;;;;;;;13.95;48.49;91676.56;4993450;28;20050;-76
2023/04/25 08:50:05;;;;;;;4.03;1.40;;;;;;;13.79;51.09;91672.25;4993874;28;20030;-76
2023/04/25 08:52:37;;;;;;;2.25;1.27;;;;;;;13.89;50.36;91663.94;4993295;28;20027;-76
2023/04/25 08:55:06;;;;;;;2.63;1.50;;;;;;;13.72;53.05;91668.28;4993391;28;20092;-76
2023/04/25 08:57:34;;;;;;;1.55;1.25;;;;;;;13.87;52.72;91674.78;5008990;28;20044;-77
2023/04/25 09:00:00;;;;;;;1.63;1.10;;;;;;;13.80;52.40;91673.78;4994683;28;20503;-77
2023/04/25 09:02:27;;;;;;;2.40;1.30;;;;;;;13.58;52.34;91677.53;4993177;28;20041;-76
2023/04/25 09:04:55;;;;;;;3.58;1.40;;;;;;;13.82;51.23;91680.25;4993108;28;20039;-76
2023/04/25 09:07:22;;;;;;;2.63;1.38;;;;;;;13.75;51.60;91666.84;4993254;28;20029;-77
2023/04/25 09:09:49;;;;;;;1.98;1.42;;;;;;;13.59;52.26;91673.84;4993165;28;20042;-77
2023/04/25 09:12:21;;;;;;;2.97;1.45;;;;;;;13.72;51.48;91664.88;4993244;28;20022;-76
2023/04/25 09:15:08;;;;;;;2.80;1.50;;;;;;;13.97;53.23;91678.09;4993123;28;20031;-77
2023/04/25 09:18:02;;;;;;;1.70;1.27;;;;;;;14.02;52.61;91691.81;4980813;28;20057;-76
2023/04/25 09:20:44;;;;;;;3.20;1.20;;;;;;;14.04;51.12;91686.22;4977555;28;20067;-76
2023/04/25 09:23:10;;;;;;;2.58;1.50;;;;;;;13.90;48.81;91682.03;4976894;28;20073;-77
2023/04/25 09:25:39;;;;;;;2.08;1.25;;;;;;;13.44;51.68;91677.81;4992820;28;20038;-76
2023/04/25 09:28:07;;;;;;;2.08;1.38;;;;;;;13.89;53.08;91677.09;4992678;28;20089;-76
2023/04/25 09:30:35;;;;;;;2.58;1.52;;;;;;;13.51;50.56;91681.47;4993947;28;20069;-76
2023/04/25 09:33:19;;;;;;;2.28;1.35;;;;;;;13.45;51.52;91685.41;4992512;28;20121;-76
2023/04/25 09:35:54;;;;;;;2.95;1.65;;;;;;;13.68;53.54;91692.94;4992535;28;20040;-76
2023/04/25 09:38:31;;;;;;;2.72;1.50;;;;;;;13.98;51.41;91688.28;4993953;28;20045;-76
2023/04/25 09:41:11;;;;;;;2.45;1.50;;;;;;;13.82;52.38;91703.91;4992617;28;20046;-76
2023/04/25 09:43:46;;;;;;;4.20;1.60;;;;;;;13.23;50.21;91710.13;5008804;28;20038;-76
2023/04/25 09:46:12;;;;;;;6.03;1.60;;;;;;;12.76;50.75;91723.41;4992539;28;20053;-76
2023/04/25 09:49:07;;;;;;;2.95;1.73;;;;;;;13.75;49.95;91720.22;4976724;28;20117;-76
2023/04/25 09:51:54;;;;;;;5.03;1.33;;;;;;;13.34;49.98;91726.31;4992474;28;20042;-76
2023/04/25 09:54:20;;;;;;;3.05;1.80;;;;;;;13.13;50.82;91715.78;5020494;28;20033;-75
2023/04/25 09:56:51;;;;;;;2.63;1.42;;;;;;;13.10;50.65;91714.56;5011723;28;20563;-76
2023/04/25 09:59:21;;;;;;;2.78;1.45;;;;;;;13.21;50.33;91716.78;5011994;28;20473;-76
2023/04/25 10:01:50;;;;;;;3.20;1.50;;;;;;;14.11;47.60;91718.78;5011652;28;20084;-76
2023/04/25 10:04:29;;;;;;;2.67;1.50;;;;;;;14.02;47.72;91719.97;5012340;28;20061;-76
2023/04/25 10:07:02;;;;;;;3.22;1.70;;;;;;;13.98;47.05;91711.97;5012143;28;20045;-76
2023/04/25 10:09:32;;;;;;;2.88;1.50;;;;;;;14.15;43.69;91711.03;5013870;28;20065;-76
2023/04/25 10:11:58;;;;;;;4.85;1.40;;;;;;;14.34;45.07;91702.59;5012618;28;20061;-76
2023/04/25 10:14:25;;;;;;;3.83;1.50;;;;;;;14.93;47.71;91701.44;5010349;28;20558;-75
2023/04/25 10:16:53;;;;;;;2.58;1.50;;;;;;;14.47;43.50;91716.56;5008910;28;20054;-75
2023/04/25 10:19:20;;;;;;;3.97;1.40;;;;;;;13.91;45.65;91707.22;5009947;28;20472;-75
2023/04/25 10:21:58;;;;;;;2.78;1.40;;;;;;;13.70;46.42;91707.28;5026292;28;20084;-78
2023/04/25 10:24:25;;;;;;;2.75;1.10;;;;;;;13.44;46.47;91715.41;5010777;28;20080;-76
2023/04/25 10:26:51;;;;;;;5.45;1.15;;;;;;;13.38;42.55;91718.56;5026108;28;20555;-76
2023/04/25 10:29:24;;;;;;;1.92;1.30;;;;;;;13.29;41.74;91723.88;5025734;28;20385;-75
2023/04/25 10:31:51;;;;;;;2.45;1.27;;;;;;;13.35;43.94;91727.84;5009844;28;20034;-76
2023/04/25 10:34:17;;;;;;;2.65;1.20;;;;;;;13.34;42.46;91731.56;5010006;28;20117;-77
2023/04/25 10:36:48;;;;;;;2.75;1.35;;;;;;;13.38;47.54;91735.09;4993333;28;20087;-77
2023/04/25 10:39:22;;;;;;;1.92;1.40;;;;;;;13.57;48.34;91733.88;5010902;28;20038;-77
2023/04/25 10:41:55;;;;;;;1.70;1.20;;;;;;;13.67;47.81;91728.22;5011019;28;20030;-76
2023/04/25 10:44:20;;;;;;;;;;;;;;;13.62;49.20;91725.78;5010237;28;20038;-77
2023/04/25 10:46:46;;;;;;;2.40;1.30;;;;;;;13.60;50.40;91731.38;5010729;28;19913;-77
2023/04/25 10:49:29;;;;;;;3.75;1.48;;;;;;;13.72;48.42;91736.66;5009913;28;20037;-77
2023/04/25 10:52:15;;;;;;;3.72;1.50;;;;;;;13.63;49.78;91735.22;5008148;28;20366;-78
2023/04/25 10:54:43;;;;;;;2.30;1.52;;;;;;;13.85;48.23;91734.84;5004392;28;20084;-77
2023/04/25 10:57:43;;;;;;;1.52;1.08;;;;;;;13.48;44.23;91720.78;5009154;28;20599;-77
2023/04/25 11:00:12;;;;;;;2.47;1.38;;;;;;;13.38;47.48;91737.72;5008011;28;20315;-77
2023/04/25 11:02:42;;;;;;;1.48;1.15;;;;;;;13.47;43.76;91741.06;5009427;28;20048;-76
2023/04/25 11:05:10;;;;;;;1.73;1.08;;;;;;;13.15;40.52;91729.34;5008620;28;20112;-76
2023/04/25 11:07:51;;;;;;;2.75;1.20;;;;;;;13.20;41.31;91747.56;5005586;28;20049;-76
2023/04/25 11:10:17;;;;;;;0.93;0.90;;;;;;;12.91;41.00;91750.97;5009203;28;20121;-77
2023/04/25 11:12:45;;;;;;;4.03;1.42;;;;;;;12.85;42.33;91755.63;5009935;28;20496;-76
2023/04/25 11:15:11;;;;;;;3.05;1.10;;;;;;;12.88;43.61;91756.88;4991231;28;20499;-76
2023/04/25 11:17:36;;;;;;;3.42;1.00;;;;;;;13.03;44.23;91756.31;4992208;28;20034;-76
2023/04/25 11:20:07;;;;;;;3.45;1.15;;;;;;;13.40;47.24;91734.78;5011075;28;20053;-77
2023/04/25 11:22:33;;;;;;;5.47;1.20;;;;;;;13.80;47.50;91747.44;5006018;28;20042;-76
2023/04/25 11:25:04;;;;;;;1.10;0.90;;;;;;;14.27;48.14;91739.22;5011990;28;20492;-76
2023/04/25 11:27:30;;;;;;;1.00;0.90;;;;;;;14.49;45.38;91746.72;5013019;28;20034;-76
2023/04/25 11:29:56;;;;;;;1.17;0.88;;;;;;;14.53;44.89;91742.34;5012169;28;20034;-76
2023/04/25 11:32:21;;;;;;;0.82;0.80;;;;;;;14.52;44.14;91738.19;5007452;28;20045;-76
2023/04/25 11:34:47;;;;;;;1.27;0.85;;;;;;;14.88;42.37;91741.16;5010569;28;20341;-75
2023/04/25 11:37:13;;;;;;;0.93;0.80;;;;;;;15.00;42.52;91728.00;5012438;28;20049;-78
2023/04/25 11:39:43;;;;;;;2.03;1.00;;;;;;;14.62;46.42;91728.34;5009425;28;20369;-77
2023/04/25 11:42:09;;;;;;;1.83;1.02;;;;;;;14.84;42.76;91737.66;5011109;28;20092;-78
2023/04/25 11:44:35;;;;;;;1.60;1.10;;;;;;;14.71;40.34;91729.00;5011271;28;20026;-77
2023/04/25 11:47:01;;;;;;;5.25;0.98;;;;;;;15.01;42.32;91737.44;5012397;28;20045;-77
2023/04/25 11:49:31;;;;;;;0.93;0.80;;;;;;;14.99;41.71;91727.22;5006090;28;20030;-75
2023/04/25 11:51:57;;;;;;;1.92;1.00;;;;;;;14.93;42.45;91735.69;5011075;28;20503;-75
2023/04/25 11:54:22;;;;;;;1.23;1.00;;;;;;;15.26;39.96;91727.59;5009929;28;20064;-75
2023/04/25 11:56:48;;;;;;;0.70;0.70;;;;;;;15.44;39.38;91727.34;5011244;28;20116;-76
2023/04/25 11:59:14;;;;;;;1.35;0.80;;;;;;;15.62;40.48;91728.63;5010709;28;20042;-76
2023/04/25 12:01:47;;;;;;;1.80;0.90;;;;;;;16.00;40.16;91722.88;5010506;28;20041;-77
2023/04/25 12:04:24;;;;;;;0.93;0.75;;;;;;;15.84;39.09;91722.09;5012098;28;20045;-77
2023/04/25 12:06:52;;;;;;;4.20;1.17;;;;;;;15.89;38.92;91719.19;5011619;28;20133;-77
2023/04/25 12:09:28;;;;;;;0.82;0.73;;;;;;;16.15;38.81;91731.94;5009931;28;20037;-77
2023/04/25 12:11:55;;;;;;;0.82;0.77;;;;;;;16.12;36.46;91729.19;5009478;28;20038;-77
2023/04/25 12:14:29;;;;;;;0.98;0.70;;;;;;;15.19;37.83;91725.53;5011828;28;20033;-78
2023/04/25 12:16:57;;;;;;;1.17;0.90;;;;;;;15.13;36.92;91716.34;5010533;28;20053;-77
2023/04/25 12:19:23;;;;;;;2.70;0.93;;;;;;;15.58;39.69;91719.84;5010691;28;21542;-77
2023/04/25 12:21:50;;;;;;;1.67;0.90;;;;;;;15.66;38.69;91715.53;5012252;28;20132;-77
2023/04/25 12:24:19;;;;;;;0.60;0.60;;;;;;;16.11;37.60;91715.25;5011462;28;20479;-77
2023/04/25 12:27:00;;;;;;;0.40;0.40;;;;;;;16.58;35.36;91721.69;5020543;28;20033;-77
2023/04/25 12:29:27;;;;;;;1.53;0.73;;;;;;;16.53;35.77;91724.56;4997119;28;20121;-77
2023/04/25 12:31:54;;;;;;;1.15;0.70;;;;;;;16.78;33.78;91720.63;5011653;28;20515;-77
2023/04/25 12:34:21;;;;;;;1.00;0.80;;;;;;;17.00;31.16;91710.56;5011749;28;20049;-77